Time;durP1;ratioP1;P1;durP2;ratioP2;P2;SDS_P1;SDS_P2;PMS_P1;PMS_P2;Temp;Humidity;BMP_temperature;BMP_pressure;BME280_temperature;BME280_humidity;BME280_pressure;Samples;Min_cycle;Max_cycle;Signal;HPM_P1;HPM_P2
2021/05/08 00:02:03;;;;;;;;;;;21.20;40.10;;;;;;5033361;28;76651;-64
2021/05/08 00:04:28;;;;;;;;;;;21.20;40.10;;;;;;5035066;28;75435;-62
2021/05/08 00:06:55;;;;;;;;;;;21.10;40.30;;;;;;5034485;28;75458;-63
2021/05/08 00:09:21;;;;;;;;;;;21.10;40.50;;;;;;5034050;28;75218;-64
2021/05/08 00:11:47;;;;;;;;;;;21.00;40.80;;;;;;5033935;28;74508;-63
2021/05/08 00:14:12;;;;;;;;;;;20.90;40.90;;;;;;5032296;28;75358;-62
2021/05/08 00:16:38;;;;;;;;;;;20.90;41.10;;;;;;5033952;28;75003;-63
2021/05/08 00:19:03;;;;;;;;;;;20.80;41.20;;;;;;5032064;28;77069;-63
2021/05/08 00:21:29;;;;;;;;;;;20.70;41.50;;;;;;5032402;28;78002;-63
2021/05/08 00:23:55;;;;;;;;;;;20.70;41.80;;;;;;5032375;28;77060;-64
2021/05/08 00:26:20;;;;;;;;;;;20.70;41.90;;;;;;5032169;28;76966;-66
2021/05/08 00:28:46;;;;;;;;;;;20.60;42.10;;;;;;5033727;28;74405;-65
2021/05/08 00:31:12;;;;;;;;;;;20.50;42.20;;;;;;5032322;28;78193;-65
2021/05/08 00:33:37;;;;;;;;;;;20.50;42.40;;;;;;5031706;28;77719;-64
2021/05/08 00:36:05;;;;;;;;;;;20.50;42.50;;;;;;5031993;28;76725;-64
2021/05/08 00:38:31;;;;;;;;;;;20.50;42.50;;;;;;5032006;28;75302;-64
2021/05/08 00:40:56;;;;;;;;;;;20.40;42.60;;;;;;5031598;28;77323;-66
2021/05/08 00:43:22;;;;;;;;;;;20.40;42.70;;;;;;5031547;28;76744;-65
2021/05/08 00:45:47;;;;;;;;;;;20.40;42.80;;;;;;5031971;28;77320;-66
2021/05/08 00:48:13;;;;;;;;;;;20.30;42.80;;;;;;5031859;28;75392;-62
2021/05/08 00:50:40;;;;;;;;;;;20.30;43.20;;;;;;5033076;28;75572;-66
2021/05/08 00:53:07;;;;;;;;;;;20.20;43.30;;;;;;5033173;28;75167;-63
2021/05/08 00:55:33;;;;;;;;;;;20.20;43.40;;;;;;5031619;28;76468;-65
2021/05/08 00:58:00;;;;;;;;;;;20.10;43.50;;;;;;5032770;28;75167;-65
2021/05/08 01:00:26;;;;;;;;;;;20.10;43.60;;;;;;5031334;28;77311;-67
2021/05/08 01:02:51;;;;;;;;;;;20.00;43.90;;;;;;5030974;28;77222;-65
2021/05/08 01:05:18;;;;;;;;;;;20.00;43.80;;;;;;5031347;28;75693;-64
2021/05/08 01:07:44;;;;;;;;;;;20.00;44.20;;;;;;4980327;28;1490415;-65
2021/05/08 01:10:11;;;;;;;;;;;19.90;44.30;;;;;;5032347;28;75315;-64
2021/05/08 01:12:37;;;;;;;;;;;19.90;44.50;;;;;;5033993;28;75675;-65
2021/05/08 01:15:07;;;;;;;;;;;19.80;44.60;;;;;;5032496;28;77639;-65
2021/05/08 01:17:32;;;;;;;;;;;19.80;44.80;;;;;;5032461;28;77414;-64
2021/05/08 01:19:58;;;;;;;;;;;19.70;45.00;;;;;;5032269;28;76099;-65
2021/05/08 01:22:24;;;;;;;;;;;19.70;45.00;;;;;;5032334;28;75167;-63
2021/05/08 01:24:49;;;;;;;;;;;19.60;45.00;;;;;;5032189;28;78426;-63
2021/05/08 01:27:15;;;;;;;;;;;19.60;45.00;;;;;;5033651;28;75124;-64
2021/05/08 01:29:40;;;;;;;;;;;19.50;45.40;;;;;;5032284;28;76935;-66
2021/05/08 01:32:06;;;;;;;;;;;19.50;45.60;;;;;;5031774;28;75689;-66
2021/05/08 01:34:32;;;;;;;;;;;19.40;45.70;;;;;;5031258;28;74554;-68
2021/05/08 01:36:58;;;;;;;;;;;19.50;46.00;;;;;;5032013;28;76529;-65
2021/05/08 01:39:23;;;;;;;;;;;19.40;46.00;;;;;;5033814;28;75240;-66
2021/05/08 01:41:49;;;;;;;;;;;19.40;46.10;;;;;;5033660;28;74466;-68
2021/05/08 01:44:14;;;;;;;;;;;19.30;46.30;;;;;;5033266;28;75179;-66
2021/05/08 01:46:40;;;;;;;;;;;19.30;46.50;;;;;;5031764;28;77158;-65
2021/05/08 01:49:06;;;;;;;;;;;19.30;46.50;;;;;;5033319;28;74551;-64
2021/05/08 01:51:31;;;;;;;;;;;19.40;46.60;;;;;;5033626;28;74463;-64
2021/05/08 01:53:57;;;;;;;;;;;19.30;46.80;;;;;;5033422;28;75218;-65
2021/05/08 01:56:23;;;;;;;;;;;19.10;47.00;;;;;;5033510;28;75053;-64
2021/05/08 01:58:49;;;;;;;;;;;19.10;47.20;;;;;;5033053;28;75346;-65
2021/05/08 02:01:15;;;;;;;;;;;19.10;47.40;;;;;;5031247;28;75751;-63
2021/05/08 02:03:41;;;;;;;;;;;19.10;47.30;;;;;;5031686;28;75309;-64
2021/05/08 02:06:06;;;;;;;;;;;19.00;47.50;;;;;;5031446;28;74682;-66
2021/05/08 02:08:32;;;;;;;;;;;18.80;47.70;;;;;;5033242;28;75160;-64
2021/05/08 02:10:58;;;;;;;;;;;18.80;48.00;;;;;;5032877;28;75267;-64
2021/05/08 02:13:23;;;;;;;;;;;18.70;48.20;;;;;;5033257;28;74646;-69
2021/05/08 02:15:49;;;;;;;;;;;18.50;48.30;;;;;;5031648;28;77173;-65
2021/05/08 02:18:15;;;;;;;;;;;18.50;48.60;;;;;;5031326;28;76711;-67
2021/05/08 02:20:41;;;;;;;;;;;18.40;48.60;;;;;;5033601;28;75074;-65
2021/05/08 02:23:15;;;;;;;;;;;18.40;48.70;;;;;;5032959;28;75420;-67
2021/05/08 02:25:41;;;;;;;;;;;18.40;48.80;;;;;;5033294;28;75303;-66
2021/05/08 02:28:07;;;;;;;;;;;18.30;48.90;;;;;;5031171;28;76399;-65
2021/05/08 02:30:33;;;;;;;;;;;18.30;48.90;;;;;;5031294;28;74816;-64
2021/05/08 02:33:00;;;;;;;;;;;18.30;49.00;;;;;;5031826;28;77315;-65
2021/05/08 02:35:26;;;;;;;;;;;18.30;49.10;;;;;;5032657;28;74954;-64
2021/05/08 02:37:52;;;;;;;;;;;18.20;49.20;;;;;;5033055;28;75212;-64
2021/05/08 02:40:19;;;;;;;;;;;18.10;49.30;;;;;;5030887;28;76370;-64
2021/05/08 02:42:45;;;;;;;;;;;18.10;49.50;;;;;;5030791;28;75608;-63
2021/05/08 02:45:11;;;;;;;;;;;18.10;49.40;;;;;;5032526;28;75243;-64
2021/05/08 02:47:37;;;;;;;;;;;18.00;49.40;;;;;;5032591;28;75369;-64
2021/05/08 02:50:03;;;;;;;;;;;18.00;49.60;;;;;;5031088;28;75422;-63
2021/05/08 02:52:28;;;;;;;;;;;18.00;49.70;;;;;;5030807;28;78374;-64
2021/05/08 02:54:54;;;;;;;;;;;17.90;49.80;;;;;;5030928;28;76747;-68
2021/05/08 02:57:19;;;;;;;;;;;17.90;49.90;;;;;;5030684;28;76476;-65
2021/05/08 02:59:45;;;;;;;;;;;17.90;50.00;;;;;;5032733;28;75128;-66
2021/05/08 03:02:11;;;;;;;;;;;17.90;50.00;;;;;;5032423;28;75693;-64
2021/05/08 03:04:36;;;;;;;;;;;17.90;50.10;;;;;;5030642;28;75200;-64
2021/05/08 03:07:02;;;;;;;;;;;17.80;50.20;;;;;;5030638;28;77304;-63
2021/05/08 03:09:29;;;;;;;;;;;17.80;50.50;;;;;;5030556;28;77078;-62
2021/05/08 03:11:54;;;;;;;;;;;17.70;50.60;;;;;;5032275;28;75804;-62
2021/05/08 03:14:20;;;;;;;;;;;17.80;50.70;;;;;;5030354;28;77479;-63
2021/05/08 03:16:46;;;;;;;;;;;17.70;50.60;;;;;;5032186;28;75174;-64
2021/05/08 03:19:11;;;;;;;;;;;17.70;50.90;;;;;;5032359;28;74863;-63
2021/05/08 03:21:38;;;;;;;;;;;17.60;50.90;;;;;;5030292;28;77304;-63
2021/05/08 03:24:04;;;;;;;;;;;17.60;51.10;;;;;;5031073;28;77181;-62
2021/05/08 03:26:30;;;;;;;;;;;17.50;51.20;;;;;;5030286;28;79546;-63
2021/05/08 03:28:56;;;;;;;;;;;17.50;51.30;;;;;;5030379;28;74813;-64
2021/05/08 03:31:22;;;;;;;;;;;17.50;51.30;;;;;;5030131;28;77502;-63
2021/05/08 03:33:47;;;;;;;;;;;17.50;51.40;;;;;;5032122;28;75142;-64
2021/05/08 03:36:13;;;;;;;;;;;17.50;51.50;;;;;;5030532;28;75239;-63
2021/05/08 03:38:39;;;;;;;;;;;17.50;51.50;;;;;;5030132;28;75831;-64
2021/05/08 03:41:04;;;;;;;;;;;17.40;51.50;;;;;;5032313;28;75753;-67
2021/05/08 03:43:30;;;;;;;;;;;17.40;51.60;;;;;;5030062;28;78369;-66
2021/05/08 03:45:56;;;;;;;;;;;17.40;51.80;;;;;;5032042;28;75858;-68
2021/05/08 03:48:22;;;;;;;;;;;17.30;51.80;;;;;;5030924;28;77582;-66
2021/05/08 03:50:47;;;;;;;;;;;17.40;51.90;;;;;;5030397;28;74520;-66
2021/05/08 03:53:13;;;;;;;;;;;17.40;52.00;;;;;;5030386;28;77533;-65
2021/05/08 03:55:40;;;;;;;;;;;17.30;52.00;;;;;;5031828;28;75219;-65
2021/05/08 03:58:06;;;;;;;;;;;17.30;52.10;;;;;;5033244;28;75635;-66
2021/05/08 04:00:32;;;;;;;;;;;17.20;52.40;;;;;;5033368;28;77492;-67
2021/05/08 04:02:57;;;;;;;;;;;17.30;52.40;;;;;;5035100;28;75086;-65
2021/05/08 04:05:23;;;;;;;;;;;17.30;52.30;;;;;;5035271;28;75348;-67
2021/05/08 04:07:49;;;;;;;;;;;17.20;52.50;;;;;;5033452;27;77966;-64
2021/05/08 04:10:14;;;;;;;;;;;17.20;52.70;;;;;;5052977;28;75777;-70
2021/05/08 04:12:41;;;;;;;;;;;17.20;52.60;;;;;;5036294;28;76975;-67
2021/05/08 04:15:11;;;;;;;;;;;17.20;52.90;;;;;;5034304;28;75695;-65
2021/05/08 04:17:38;;;;;;;;;;;17.10;52.80;;;;;;5043562;28;74600;-65
2021/05/08 04:20:05;;;;;;;;;;;17.10;52.80;;;;;;5054383;28;74720;-63
2021/05/08 04:22:30;;;;;;;;;;;17.00;53.00;;;;;;5054087;28;76985;-67
2021/05/08 04:24:56;;;;;;;;;;;17.00;53.10;;;;;;5055170;28;75693;-64
2021/05/08 04:27:22;;;;;;;;;;;17.00;53.10;;;;;;5041102;28;75102;-65
2021/05/08 04:29:47;;;;;;;;;;;16.90;53.20;;;;;;5034135;28;75076;-68
2021/05/08 04:32:13;;;;;;;;;;;16.90;53.10;;;;;;5033305;28;78028;-64
2021/05/08 04:34:39;;;;;;;;;;;16.90;53.20;;;;;;5034585;28;75227;-63
2021/05/08 04:37:04;;;;;;;;;;;16.80;53.30;;;;;;5035153;28;74341;-64
2021/05/08 04:39:30;;;;;;;;;;;16.70;53.50;;;;;;5034531;28;75184;-66
2021/05/08 04:41:55;;;;;;;;;;;16.60;53.60;;;;;;5032301;28;77963;-66
2021/05/08 04:44:21;;;;;;;;;;;16.60;53.70;;;;;;5034471;28;74499;-65
2021/05/08 04:46:48;;;;;;;;;;;16.60;53.80;;;;;;5034198;28;75382;-67
2021/05/08 04:49:15;;;;;;;;;;;16.50;53.80;;;;;;5032764;28;76564;-65
2021/05/08 04:51:40;;;;;;;;;;;16.50;53.80;;;;;;5034216;28;75307;-66
2021/05/08 04:54:06;;;;;;;;;;;16.40;54.00;;;;;;5033046;28;77985;-64
2021/05/08 04:56:31;;;;;;;;;;;16.40;54.10;;;;;;5034763;28;75697;-68
2021/05/08 04:58:57;;;;;;;;;;;16.40;54.10;;;;;;5033738;28;76921;-65
2021/05/08 05:01:23;;;;;;;;;;;16.40;54.40;;;;;;5032908;28;77983;-67
2021/05/08 05:03:48;;;;;;;;;;;16.30;54.40;;;;;;5034148;28;76152;-63
2021/05/08 05:06:14;;;;;;;;;;;16.30;54.30;;;;;;5033051;28;76891;-63
2021/05/08 05:08:40;;;;;;;;;;;16.20;54.40;;;;;;5033408;28;75755;-65
2021/05/08 05:11:06;;;;;;;;;;;16.10;54.60;;;;;;5031886;28;76939;-67
2021/05/08 05:13:32;;;;;;;;;;;16.10;55.00;;;;;;5034051;28;74443;-69
2021/05/08 05:15:57;;;;;;;;;;;16.00;54.90;;;;;;5032299;28;77022;-65
2021/05/08 05:18:23;;;;;;;;;;;16.00;54.80;;;;;;5032409;28;75445;-65
2021/05/08 05:20:48;;;;;;;;;;;16.00;54.70;;;;;;5032202;28;77079;-65
2021/05/08 05:23:14;;;;;;;;;;;16.00;54.80;;;;;;5032479;28;74599;-63
2021/05/08 05:25:40;;;;;;;;;;;15.90;54.90;;;;;;5033894;28;75163;-62
2021/05/08 05:28:19;;;;;;;;;;;15.90;55.10;;;;;;5032014;28;76879;-63
2021/05/08 05:30:44;;;;;;;;;;;15.90;55.20;;;;;;5032329;28;75515;-64
2021/05/08 05:33:10;;;;;;;;;;;15.90;55.20;;;;;;5033847;28;74596;-63
2021/05/08 05:35:36;;;;;;;;;;;15.90;55.40;;;;;;5032039;28;77254;-63
2021/05/08 05:38:01;;;;;;;;;;;15.90;55.40;;;;;;5033615;28;74487;-65
2021/05/08 05:40:27;;;;;;;;;;;15.90;55.40;;;;;;5033978;28;74384;-64
2021/05/08 05:42:52;;;;;;;;;;;15.90;55.50;;;;;;5033381;28;75401;-66
2021/05/08 05:45:18;;;;;;;;;;;15.90;55.60;;;;;;5032908;28;75139;-67
2021/05/08 05:47:45;;;;;;;;;;;15.90;55.50;;;;;;5046415;28;76260;-65
2021/05/08 05:50:11;;;;;;;;;;;15.90;55.50;;;;;;5052509;28;74605;-66
2021/05/08 05:52:36;;;;;;;;;;;15.90;55.50;;;;;;5051023;27;75385;-64
2021/05/08 05:55:02;;;;;;;;;;;15.90;55.40;;;;;;5050771;28;77911;-66
2021/05/08 05:57:28;;;;;;;;;;;15.90;55.40;;;;;;5052519;27;75670;-64
2021/05/08 05:59:53;;;;;;;;;;;15.90;55.40;;;;;;5053022;28;74697;-64
2021/05/08 06:02:19;;;;;;;;;;;16.00;55.20;;;;;;5053409;27;75326;-65
2021/05/08 06:04:45;;;;;;;;;;;16.00;55.20;;;;;;5053400;27;75452;-65
2021/05/08 06:07:10;;;;;;;;;;;16.00;55.30;;;;;;5051065;28;75469;-67
2021/05/08 06:09:36;;;;;;;;;;;16.00;55.50;;;;;;5053288;28;74937;-66
2021/05/08 06:12:01;;;;;;;;;;;16.00;55.50;;;;;;5053293;27;75353;-65
2021/05/08 06:14:28;;;;;;;;;;;16.00;55.30;;;;;;5049425;28;75280;-65
2021/05/08 06:16:56;;;;;;;;;;;16.00;55.50;;;;;;5051970;28;76421;-64
2021/05/08 06:19:25;;;;;;;;;;;16.00;55.20;;;;;;5051373;28;76271;-68
2021/05/08 06:21:51;;;;;;;;;;;16.10;55.30;;;;;;5052858;27;75175;-64
2021/05/08 06:24:16;;;;;;;;;;;16.10;55.20;;;;;;5053003;27;75097;-65
2021/05/08 06:26:42;;;;;;;;;;;16.20;55.40;;;;;;5053815;27;74318;-66
2021/05/08 06:29:08;;;;;;;;;;;16.30;55.60;;;;;;5051488;28;74709;-66
2021/05/08 06:31:33;;;;;;;;;;;16.30;55.20;;;;;;5051355;27;76399;-66
2021/05/08 06:33:59;;;;;;;;;;;16.40;55.30;;;;;;5051408;28;77462;-65
2021/05/08 06:36:24;;;;;;;;;;;16.40;55.40;;;;;;5051352;28;77840;-65
2021/05/08 06:38:50;;;;;;;;;;;16.40;55.10;;;;;;5053187;27;75326;-65
2021/05/08 06:41:17;;;;;;;;;;;16.50;54.90;;;;;;5051226;27;77415;-66
2021/05/08 06:43:43;;;;;;;;;;;16.60;54.80;;;;;;5052638;28;75254;-66
2021/05/08 06:46:08;;;;;;;;;;;16.60;54.50;;;;;;5051422;28;77160;-67
2021/05/08 06:48:35;;;;;;;;;;;16.80;54.60;;;;;;5051483;28;76841;-67
2021/05/08 06:51:01;;;;;;;;;;;16.80;54.40;;;;;;5052845;27;75753;-67
2021/05/08 06:53:26;;;;;;;;;;;16.90;54.50;;;;;;5052782;28;75280;-67
2021/05/08 06:55:52;;;;;;;;;;;16.90;54.50;;;;;;5051393;28;76249;-68
2021/05/08 06:58:18;;;;;;;;;;;16.90;54.40;;;;;;5051033;28;76906;-63
2021/05/08 07:00:43;;;;;;;;;;;17.10;54.10;;;;;;5051725;28;78308;-64
2021/05/08 07:03:09;;;;;;;;;;;17.20;53.70;;;;;;5052725;27;75744;-67
2021/05/08 07:05:34;;;;;;;;;;;17.30;53.50;;;;;;5050466;28;77324;-68
2021/05/08 07:08:01;;;;;;;;;;;17.40;53.50;;;;;;5051847;27;74768;-67
2021/05/08 07:10:27;;;;;;;;;;;17.40;53.30;;;;;;5050781;28;75386;-68
2021/05/08 07:12:52;;;;;;;;;;;17.40;53.40;;;;;;5050916;28;77223;-70
2021/05/08 07:15:18;;;;;;;;;;;17.40;53.20;;;;;;5052715;28;74590;-67
2021/05/08 07:17:44;;;;;;;;;;;17.50;53.00;;;;;;5050921;28;75456;-68
2021/05/08 07:20:09;;;;;;;;;;;17.60;53.00;;;;;;5050804;28;78442;-69
2021/05/08 07:22:35;;;;;;;;;;;17.70;52.80;;;;;;5050853;28;77049;-69
2021/05/08 07:25:01;;;;;;;;;;;17.80;52.60;;;;;;5050992;28;76552;-69
2021/05/08 07:27:26;;;;;;;;;;;17.90;52.20;;;;;;5050427;28;75689;-68
2021/05/08 07:29:52;;;;;;;;;;;18.00;52.00;;;;;;5052133;28;75396;-68
2021/05/08 07:32:18;;;;;;;;;;;18.00;51.90;;;;;;5051504;28;77708;-69
2021/05/08 07:34:43;;;;;;;;;;;18.20;51.50;;;;;;5054031;28;75422;-67
2021/05/08 07:37:09;;;;;;;;;;;18.30;51.30;;;;;;5053999;28;75152;-68
2021/05/08 07:39:34;;;;;;;;;;;18.40;51.00;;;;;;5053313;28;75909;-66
2021/05/08 07:42:00;;;;;;;;;;;18.40;51.10;;;;;;5055638;28;75178;-67
2021/05/08 07:44:26;;;;;;;;;;;18.50;50.70;;;;;;5055492;28;74442;-68
2021/05/08 07:46:51;;;;;;;;;;;18.60;50.50;;;;;;5055718;28;75662;-67
2021/05/08 07:49:17;;;;;;;;;;;18.70;50.20;;;;;;5053939;28;76458;-68
2021/05/08 07:51:42;;;;;;;;;;;18.80;49.90;;;;;;5055262;28;74632;-67
2021/05/08 07:54:08;;;;;;;;;;;18.90;49.90;;;;;;5055481;28;75136;-68
2021/05/08 07:56:35;;;;;;;;;;;19.00;49.80;;;;;;5055386;28;75573;-70
2021/05/08 07:59:01;;;;;;;;;;;19.20;49.20;;;;;;5055748;27;75313;-70
2021/05/08 08:01:26;;;;;;;;;;;19.30;48.60;;;;;;5053829;28;77698;-70
2021/05/08 08:03:52;;;;;;;;;;;19.50;48.30;;;;;;5054295;28;77240;-70
2021/05/08 08:06:18;;;;;;;;;;;19.60;47.80;;;;;;5053740;28;75247;-70
2021/05/08 08:08:43;;;;;;;;;;;19.70;47.60;;;;;;5053721;28;77357;-70
2021/05/08 08:11:09;;;;;;;;;;;19.90;47.10;;;;;;5055465;28;74846;-69
2021/05/08 08:13:35;;;;;;;;;;;20.00;46.60;;;;;;5055592;28;74570;-70
2021/05/08 08:16:00;;;;;;;;;;;20.30;46.20;;;;;;5054168;28;77197;-69
2021/05/08 08:18:27;;;;;;;;;;;20.40;45.90;;;;;;5055618;28;74385;-68
2021/05/08 08:20:53;;;;;;;;;;;20.60;45.30;;;;;;5055219;28;75194;-69
2021/05/08 08:23:19;;;;;;;;;;;20.70;44.90;;;;;;5053577;28;76994;-69
2021/05/08 08:25:45;;;;;;;;;;;20.80;44.90;;;;;;5055602;28;74631;-69
2021/05/08 08:28:11;;;;;;;;;;;20.80;44.90;;;;;;5053492;28;74508;-69
2021/05/08 08:30:36;;;;;;;;;;;20.70;45.20;;;;;;5054882;28;75446;-68
2021/05/08 08:33:02;;;;;;;;;;;20.70;45.70;;;;;;5055631;28;74441;-68
2021/05/08 08:35:27;;;;;;;;;;;20.70;46.00;;;;;;5054017;28;74500;-65
2021/05/08 08:37:53;;;;;;;;;;;20.70;46.00;;;;;;5053233;28;77354;-68
2021/05/08 08:40:20;;;;;;;;;;;20.90;45.80;;;;;;5054994;28;75164;-68
2021/05/08 08:42:46;;;;;;;;;;;21.00;45.00;;;;;;5052928;28;77347;-67
2021/05/08 08:45:12;;;;;;;;;;;21.10;45.00;;;;;;5054653;27;75143;-68
2021/05/08 08:47:37;;;;;;;;;;;21.20;45.10;;;;;;5054403;28;74495;-69
2021/05/08 08:50:05;;;;;;;;;;;21.40;44.40;;;;;;5053374;28;76856;-68
2021/05/08 08:52:30;;;;;;;;;;;21.50;44.40;;;;;;5054574;27;75315;-76
2021/05/08 08:54:57;;;;;;;;;;;21.70;44.10;;;;;;5052826;28;77366;-66
2021/05/08 08:57:33;;;;;;;;;;;21.80;43.50;;;;;;5053356;28;75572;-65
2021/05/08 08:59:59;;;;;;;;;;;21.90;43.00;;;;;;5052555;28;76358;-67
2021/05/08 09:02:26;;;;;;;;;;;21.90;42.60;;;;;;5055241;28;74573;-66
2021/05/08 09:04:52;;;;;;;;;;;21.90;42.90;;;;;;5052555;28;77077;-66
2021/05/08 09:07:18;;;;;;;;;;;21.80;43.10;;;;;;5054299;28;74935;-65
2021/05/08 09:09:44;;;;;;;;;;;21.90;42.90;;;;;;5054192;28;75183;-67
2021/05/08 09:12:13;;;;;;;;;;;21.90;43.10;;;;;;5054406;28;75361;-66
2021/05/08 09:14:39;;;;;;;;;;;22.00;42.40;;;;;;5052797;28;78130;-66
2021/05/08 09:17:07;;;;;;;;;;;22.00;42.10;;;;;;5054330;28;74663;-66
2021/05/08 09:19:34;;;;;;;;;;;22.10;41.80;;;;;;5055065;28;75069;-67
2021/05/08 09:22:20;;;;;;;;;;;22.20;41.90;;;;;;5054202;27;75167;-66
2021/05/08 09:25:13;;;;;;;;;;;22.30;41.80;;;;;;5053102;28;77325;-66
2021/05/08 09:27:49;;;;;;;;;;;22.40;42.10;;;;;;5052843;27;75369;-66
2021/05/08 09:30:19;;;;;;;;;;;22.60;41.90;;;;;;5052541;28;77370;-66
2021/05/08 09:32:50;;;;;;;;;;;22.80;40.70;;;;;;5052958;28;75312;-67
2021/05/08 09:35:26;;;;;;;;;;;22.90;41.40;;;;;;5052346;28;77690;-68
2021/05/08 09:38:05;;;;;;;;;;;23.10;40.20;;;;;;5053233;28;77569;-68
2021/05/08 09:40:31;;;;;;;;;;;23.10;40.10;;;;;;5052089;28;75221;-67
2021/05/08 09:42:58;;;;;;;;;;;23.10;40.60;;;;;;5054014;27;75011;-67
2021/05/08 09:45:24;;;;;;;;;;;23.10;40.50;;;;;;5052002;28;75037;-68
2021/05/08 09:47:51;;;;;;;;;;;23.20;40.90;;;;;;5052669;28;74569;-69
2021/05/08 09:50:24;;;;;;;;;;;23.30;41.20;;;;;;5053959;28;75264;-67
2021/05/08 09:52:54;;;;;;;;;;;23.50;40.00;;;;;;5051857;28;75091;-68
2021/05/08 09:55:21;;;;;;;;;;;23.60;40.20;;;;;;5051411;27;75415;-68
2021/05/08 09:57:56;;;;;;;;;;;23.60;39.70;;;;;;5053281;28;75039;-68
2021/05/08 10:00:28;;;;;;;;;;;23.70;39.20;;;;;;5052002;28;77398;-68
2021/05/08 10:03:01;;;;;;;;;;;23.80;39.60;;;;;;5053494;28;75195;-68
2021/05/08 10:05:27;;;;;;;;;;;24.10;39.20;;;;;;5053743;28;75102;-68
2021/05/08 10:07:52;;;;;;;;;;;24.30;38.80;;;;;;5053200;28;75182;-68
2021/05/08 10:10:19;;;;;;;;;;;24.50;39.30;;;;;;5051893;28;77394;-69
2021/05/08 10:12:45;;;;;;;;;;;24.80;39.20;;;;;;5051699;28;77658;-69
2021/05/08 10:15:11;;;;;;;;;;;25.00;38.80;;;;;;5053105;28;75334;-68
2021/05/08 10:17:37;;;;;;;;;;;25.40;38.50;;;;;;5052029;28;74662;-69
2021/05/08 10:20:10;;;;;;;;;;;25.60;37.70;;;;;;5051848;28;77474;-68
2021/05/08 10:22:47;;;;;;;;;;;25.90;37.70;;;;;;5051507;28;78186;-68
2021/05/08 10:25:13;;;;;;;;;;;26.20;37.10;;;;;;5051826;28;75668;-69
2021/05/08 10:27:39;;;;;;;;;;;26.40;36.90;;;;;;5051868;28;75744;-68
2021/05/08 10:30:09;;;;;;;;;;;26.60;35.60;;;;;;5053265;28;75351;-69
2021/05/08 10:32:37;;;;;;;;;;;26.70;35.40;;;;;;5053208;28;74718;-69
2021/05/08 10:35:03;;;;;;;;;;;26.90;35.90;;;;;;5051819;28;78154;-69
2021/05/08 10:37:29;;;;;;;;;;;27.00;35.50;;;;;;5051684;28;76363;-68
2021/05/08 10:39:59;;;;;;;;;;;27.30;34.60;;;;;;5052086;28;77379;-69
2021/05/08 10:42:49;;;;;;;;;;;27.50;34.10;;;;;;5053338;28;75267;-69
2021/05/08 10:45:21;;;;;;;;;;;27.80;34.50;;;;;;5049888;28;74778;-69
2021/05/08 10:47:52;;;;;;;;;;;28.00;33.50;;;;;;5051675;28;78375;-69
2021/05/08 10:50:21;;;;;;;;;;;28.30;33.10;;;;;;5053515;28;75041;-69
2021/05/08 10:53:01;;;;;;;;;;;28.70;32.40;;;;;;5053079;28;75788;-69
2021/05/08 10:55:27;;;;;;;;;;;28.90;31.10;;;;;;5051424;28;76291;-68
2021/05/08 10:58:12;;;;;;;;;;;29.10;31.50;;;;;;5051418;28;77088;-69
2021/05/08 11:00:44;;;;;;;;;;;29.60;31.10;;;;;;5052673;27;75013;-69
2021/05/08 11:03:10;;;;;;;;;;;30.10;30.20;;;;;;5051433;28;77462;-68
2021/05/08 11:05:36;;;;;;;;;;;30.40;30.00;;;;;;5051407;28;75765;-69
2021/05/08 11:08:20;;;;;;;;;;;30.40;28.70;;;;;;5054037;27;74669;-69
2021/05/08 11:10:52;;;;;;;;;;;30.90;28.90;;;;;;5056583;27;75159;-69
2021/05/08 11:13:19;;;;;;;;;;;31.70;28.40;;;;;;5054963;28;74567;-70
2021/05/08 11:15:54;;;;;;;;;;;32.40;26.50;;;;;;5056383;28;75249;-69
2021/05/08 11:18:37;;;;;;;;;;;33.00;26.10;;;;;;5056098;28;75085;-69
2021/05/08 11:21:12;;;;;;;;;;;33.90;25.30;;;;;;5054887;28;78062;-69
2021/05/08 11:23:42;;;;;;;;;;;34.50;24.80;;;;;;5056279;28;74664;-68
2021/05/08 11:26:26;;;;;;;;;;;35.40;24.20;;;;;;5054672;28;77642;-68
2021/05/08 11:28:57;;;;;;;;;;;36.20;23.20;;;;;;5055972;28;75218;-69
2021/05/08 11:31:26;;;;;;;;;;;36.70;22.80;;;;;;5056240;28;75753;-67
2021/05/08 11:33:51;;;;;;;;;;;36.90;22.00;;;;;;5056438;27;75463;-67
2021/05/08 11:36:17;;;;;;;;;;;37.20;19.60;;;;;;5055027;28;77492;-68
2021/05/08 11:38:43;;;;;;;;;;;37.70;20.70;;;;;;5054541;28;76887;-68
2021/05/08 11:41:22;;;;;;;;;;;38.70;20.10;;;;;;5055774;28;75161;-68
2021/05/08 11:43:52;;;;;;;;;;;39.60;20.00;;;;;;5054317;28;76436;-68
2021/05/08 11:46:21;;;;;;;;;;;40.50;19.10;;;;;;5055925;28;75564;-67
2021/05/08 11:48:49;;;;;;;;;;;40.70;18.70;;;;;;5054557;28;76812;-67
2021/05/08 11:51:14;;;;;;;;;;;40.20;17.80;;;;;;5055465;27;75294;-67
2021/05/08 11:53:40;;;;;;;;;;;39.50;19.20;;;;;;5054094;28;74609;-68
2021/05/08 11:56:06;;;;;;;;;;;39.50;17.90;;;;;;5056121;28;74570;-67
2021/05/08 11:58:31;;;;;;;;;;;40.10;19.10;;;;;;5053758;28;77193;-68
2021/05/08 12:00:57;;;;;;;;;;;41.20;18.30;;;;;;5055652;28;74928;-68
2021/05/08 12:03:24;;;;;;;;;;;42.40;17.60;;;;;;5053599;28;77228;-69
2021/05/08 12:05:50;;;;;;;;;;;42.90;17.10;;;;;;5055302;28;75687;-69
2021/05/08 12:08:20;;;;;;;;;;;43.30;16.20;;;;;;5053687;28;77307;-69
2021/05/08 12:10:47;;;;;;;;;;;43.30;15.50;;;;;;5055098;28;75181;-69
2021/05/08 12:13:12;;;;;;;;;;;43.00;15.50;;;;;;5053721;28;77486;-69
2021/05/08 12:15:51;;;;;;;;;;;42.70;16.20;;;;;;5055067;28;75552;-69
2021/05/08 12:18:18;;;;;;;;;;;42.40;16.30;;;;;;5054719;27;75337;-68
2021/05/08 12:20:45;;;;;;;;;;;41.30;17.30;;;;;;5053722;28;75500;-69
2021/05/08 12:23:15;;;;;;;;;;;40.70;18.10;;;;;;5053588;28;74536;-70
2021/05/08 12:25:41;;;;;;;;;;;40.40;17.80;;;;;;5055413;28;75273;-69
2021/05/08 12:28:13;;;;;;;;;;;40.70;18.00;;;;;;5053546;28;74958;-69
2021/05/08 12:30:39;;;;;;;;;;;41.60;17.60;;;;;;5053506;28;75092;-71
2021/05/08 12:33:04;;;;;;;;;;;43.10;15.30;;;;;;5055104;28;75366;-69
2021/05/08 12:35:30;;;;;;;;;;;43.90;15.10;;;;;;5055141;28;75245;-68
2021/05/08 12:37:55;;;;;;;;;;;44.60;15.90;;;;;;5055035;28;75611;-69
2021/05/08 12:40:31;;;;;;;;;;;45.80;14.70;;;;;;5053273;28;77122;-68
2021/05/08 12:42:57;;;;;;;;;;;46.30;14.30;;;;;;5053250;28;77320;-68
2021/05/08 12:45:23;;;;;;;;;;;47.60;13.90;;;;;;5053197;28;76749;-68
2021/05/08 12:47:49;;;;;;;;;;;47.90;13.10;;;;;;5055498;28;74669;-69
2021/05/08 12:50:18;;;;;;;;;;;48.50;13.80;;;;;;5054631;28;74516;-69
2021/05/08 12:52:44;;;;;;;;;;;49.80;12.00;;;;;;5053132;28;77495;-69
2021/05/08 12:55:26;;;;;;;;;;;49.50;12.40;;;;;;5054579;28;75050;-69
2021/05/08 12:57:52;;;;;;;;;;;49.80;11.20;;;;;;5053774;28;76769;-68
2021/05/08 13:00:19;;;;;;;;;;;49.00;11.90;;;;;;5052897;28;76069;-69
2021/05/08 13:02:46;;;;;;;;;;;48.70;11.80;;;;;;5054893;28;74371;-69
2021/05/08 13:05:13;;;;;;;;;;;48.10;12.50;;;;;;5053036;28;77249;-69
2021/05/08 13:07:40;;;;;;;;;;;47.50;12.00;;;;;;5054224;28;75884;-69
2021/05/08 13:10:25;;;;;;;;;;;47.50;12.50;;;;;;5054438;28;75378;-69
2021/05/08 13:12:53;;;;;;;;;;;47.90;12.40;;;;;;5051832;28;75835;-70
2021/05/08 13:15:19;;;;;;;;;;;48.40;12.30;;;;;;5052789;28;78326;-69
2021/05/08 13:17:46;;;;;;;;;;;49.40;12.10;;;;;;5052832;28;77570;-70
2021/05/08 13:20:12;;;;;;;;;;;50.40;11.50;;;;;;5054587;27;75149;-71
2021/05/08 13:22:39;;;;;;;;;;;50.70;11.10;;;;;;5054633;28;75240;-70
2021/05/08 13:25:06;;;;;;;;;;;50.00;11.60;;;;;;5054764;27;74461;-70
2021/05/08 13:27:32;;;;;;;;;;;50.40;12.40;;;;;;5054493;28;75175;-69
2021/05/08 13:29:58;;;;;;;;;;;50.60;11.30;;;;;;5053278;27;75168;-69
2021/05/08 13:32:23;;;;;;;;;;;49.90;11.50;;;;;;5052523;28;76649;-69
2021/05/08 13:34:49;;;;;;;;;;;49.40;11.30;;;;;;5052382;28;77927;-69
2021/05/08 13:37:15;;;;;;;;;;;49.00;11.50;;;;;;5052673;28;78045;-70
2021/05/08 13:39:40;;;;;;;;;;;48.20;12.30;;;;;;5052563;28;75399;-69
2021/05/08 13:42:06;;;;;;;;;;;47.40;12.50;;;;;;5052560;28;77308;-69
2021/05/08 13:44:31;;;;;;;;;;;47.20;12.50;;;;;;5052265;28;77240;-70
2021/05/08 13:46:57;;;;;;;;;;;47.50;12.30;;;;;;5053917;28;75155;-70
2021/05/08 13:49:24;;;;;;;;;;;47.50;12.20;;;;;;5053930;28;75050;-69
2021/05/08 13:51:49;;;;;;;;;;;46.70;12.40;;;;;;5053497;27;75818;-69
2021/05/08 13:54:15;;;;;;;;;;;46.50;12.90;;;;;;5053558;28;74520;-69
2021/05/08 13:56:41;;;;;;;;;;;47.30;12.90;;;;;;5052272;28;74686;-69
2021/05/08 13:59:06;;;;;;;;;;;48.00;12.70;;;;;;5051974;28;78472;-69
2021/05/08 14:01:32;;;;;;;;;;;48.00;12.50;;;;;;5053825;28;74965;-69
2021/05/08 14:03:58;;;;;;;;;;;47.90;12.40;;;;;;5051917;28;75293;-69
2021/05/08 14:06:23;;;;;;;;;;;48.20;12.60;;;;;;5053518;28;75371;-69
2021/05/08 14:08:49;;;;;;;;;;;48.80;11.80;;;;;;5052088;28;77428;-69
2021/05/08 14:11:14;;;;;;;;;;;48.50;12.00;;;;;;5051662;28;77833;-70
2021/05/08 14:13:40;;;;;;;;;;;46.70;12.30;;;;;;5052183;28;76424;-70
2021/05/08 14:16:05;;;;;;;;;;;44.60;13.10;;;;;;5053252;28;75413;-69